Frederika, Iowa
Current Conditions -  °F | °C
As of 5:55 AM on Monday 24 Nov 2014 (Local Time) from KCCY Reporting Station
Haze Haze  
Wind Chill: 13°   Ceiling: 800
Heat Index: 27°   Visibility: 3mi
Dew Point: 25°   Wind: 20mph
Humidity: 93%   Direction: 300°WNW
Pressure: 29.3"   Gusts: 36mph
Location:  42.88°N, 92.31°W
Report Text: KCCY 241155Z AUTO 30017G31KT 3SM BR OVC008 M03/M04 A2930 RMK AO2
Loading
Personal Weather Stations






























Interactive Weather Map New forecast layout! Learn more

10-Day Weather Forecast

Advertisements
Track Severe Weather on mobile